createdAt,value
2022-08-30T00:01:16.854Z,10.17
2022-08-30T00:03:48.589Z,7.90
2022-08-30T00:06:20.983Z,3.92
2022-08-30T00:08:51.787Z,4.47
2022-08-30T00:11:24.473Z,6.23
2022-08-30T00:13:56.186Z,5.60
2022-08-30T00:16:26.582Z,5.03
2022-08-30T00:18:56.894Z,3.65
2022-08-30T00:21:27.907Z,5.83
2022-08-30T00:23:57.684Z,3.73
2022-08-30T00:26:27.447Z,8.83
2022-08-30T00:28:58.694Z,4.72
2022-08-30T00:31:29.060Z,5.67
2022-08-30T00:33:58.835Z,5.60
2022-08-30T00:36:28.776Z,3.53
2022-08-30T00:38:58.536Z,5.80
2022-08-30T00:41:28.772Z,3.10
2022-08-30T00:43:59.310Z,10.27
2022-08-30T00:46:32.278Z,5.93
2022-08-30T00:49:04.554Z,5.23
2022-08-30T00:51:34.664Z,5.53
2022-08-30T00:54:07.858Z,4.65
2022-08-30T00:56:37.971Z,6.70
2022-08-30T00:59:08.692Z,9.63
2022-08-30T01:01:38.880Z,6.87
2022-08-30T01:04:11.501Z,4.00
2022-08-30T01:06:41.784Z,7.00
2022-08-30T01:09:11.584Z,6.93
2022-08-30T01:11:44.119Z,4.80
2022-08-30T01:14:14.925Z,3.67
2022-08-30T01:16:46.723Z,7.60
2022-08-30T01:19:28.582Z,6.07
2022-08-30T01:22:01.798Z,5.27
2022-08-30T01:24:32.295Z,6.47
2022-08-30T01:27:02.601Z,7.83
2022-08-30T01:29:33.100Z,5.00
2022-08-30T01:32:02.951Z,5.73
2022-08-30T01:34:32.721Z,4.33
2022-08-30T01:37:03.121Z,5.47
2022-08-30T01:39:33.733Z,7.27
2022-08-30T01:42:04.539Z,5.57
2022-08-30T01:44:34.602Z,7.67
2022-08-30T01:47:04.142Z,6.58
2022-08-30T01:49:33.970Z,7.27
2022-08-30T01:52:04.153Z,4.93
2022-08-30T01:54:37.893Z,6.10
2022-08-30T01:57:13.191Z,7.85
2022-08-30T01:59:45.537Z,7.63
2022-08-30T02:02:21.121Z,8.13
2022-08-30T02:04:51.803Z,6.80
2022-08-30T02:07:23.451Z,7.73
2022-08-30T02:09:54.370Z,7.37
2022-08-30T02:12:24.391Z,8.85
2022-08-30T02:14:54.154Z,7.40
2022-08-30T02:17:24.501Z,10.30
2022-08-30T02:19:54.275Z,5.60
2022-08-30T02:22:24.171Z,7.10
2022-08-30T02:24:53.968Z,8.67
2022-08-30T02:27:23.799Z,6.73
2022-08-30T02:29:54.062Z,8.05
2022-08-30T02:32:24.099Z,10.20
2022-08-30T02:34:54.747Z,8.50
2022-08-30T02:37:24.242Z,10.00
2022-08-30T02:39:54.037Z,11.13
2022-08-30T02:42:24.127Z,10.53
2022-08-30T02:44:54.472Z,8.00
2022-08-30T02:47:24.269Z,6.77
2022-08-30T02:49:54.101Z,7.47
2022-08-30T02:52:27.757Z,8.93
2022-08-30T02:54:55.664Z,7.43
2022-08-30T02:57:25.139Z,8.30
2022-08-30T02:59:54.911Z,9.70
2022-08-30T03:02:25.106Z,10.88
2022-08-30T03:04:55.416Z,9.73
2022-08-30T03:07:25.240Z,8.03
2022-08-30T03:09:55.087Z,7.97
2022-08-30T03:12:25.295Z,7.13
2022-08-30T03:14:55.347Z,8.97
2022-08-30T03:17:25.353Z,8.63
2022-08-30T03:19:55.438Z,8.05
2022-08-30T03:22:25.245Z,9.08
2022-08-30T03:24:56.687Z,7.63
2022-08-30T03:27:26.669Z,11.55
2022-08-30T03:29:56.867Z,9.30
2022-08-30T03:32:26.798Z,7.37
2022-08-30T03:34:56.656Z,11.67
2022-08-30T03:37:27.592Z,10.35
2022-08-30T03:39:57.720Z,9.53
2022-08-30T03:42:27.830Z,9.30
2022-08-30T03:44:57.779Z,11.23
2022-08-30T03:47:27.309Z,11.50
2022-08-30T03:49:57.824Z,11.83
2022-08-30T03:52:28.643Z,13.65
2022-08-30T03:54:58.227Z,11.30
2022-08-30T03:57:29.238Z,8.43
2022-08-30T03:59:59.028Z,10.60
2022-08-30T04:02:29.166Z,12.73
2022-08-30T04:04:58.932Z,10.97
2022-08-30T04:07:28.708Z,9.10
2022-08-30T04:09:58.269Z,9.70
2022-08-30T04:12:28.659Z,12.80
2022-08-30T04:14:58.433Z,8.50
2022-08-30T04:17:28.650Z,9.83
2022-08-30T04:19:58.326Z,12.05
2022-08-30T04:22:27.797Z,9.73
2022-08-30T04:24:57.593Z,10.40
2022-08-30T04:27:27.692Z,10.63
2022-08-30T04:29:57.773Z,9.58
2022-08-30T04:32:27.627Z,8.23
2022-08-30T04:35:00.417Z,8.75
2022-08-30T04:37:30.194Z,9.60
2022-08-30T04:40:03.367Z,8.87
2022-08-30T04:42:34.854Z,8.77
2022-08-30T04:45:08.543Z,12.67
2022-08-30T04:47:39.266Z,9.70
2022-08-30T04:50:13.777Z,10.70
2022-08-30T04:52:44.075Z,9.87
2022-08-30T04:55:19.493Z,9.55
2022-08-30T04:57:46.129Z,10.75
2022-08-30T05:00:16.236Z,9.65
2022-08-30T05:02:46.084Z,10.20
2022-08-30T05:05:33.478Z,7.97
2022-08-30T05:08:03.776Z,8.93
2022-08-30T05:10:34.190Z,9.63
2022-08-30T05:13:04.039Z,9.13
2022-08-30T05:15:34.542Z,8.87
2022-08-30T05:18:07.551Z,7.92
2022-08-30T05:20:38.348Z,7.73
2022-08-30T05:23:08.409Z,7.47
2022-08-30T05:25:40.790Z,10.97
2022-08-30T05:28:11.332Z,9.18
2022-08-30T05:30:41.563Z,8.20
2022-08-30T05:33:11.132Z,7.45
2022-08-30T05:35:40.980Z,6.63
2022-08-30T05:38:11.477Z,7.22
2022-08-30T05:40:44.868Z,8.13
2022-08-30T05:43:15.536Z,9.40
2022-08-30T05:45:45.325Z,9.13
2022-08-30T05:48:15.025Z,9.53
2022-08-30T05:50:44.810Z,7.93
2022-08-30T05:53:14.584Z,8.00
2022-08-30T05:55:44.350Z,8.43
2022-08-30T05:58:14.132Z,6.67
2022-08-30T06:00:43.997Z,9.67
2022-08-30T06:03:13.878Z,6.70
2022-08-30T06:05:43.654Z,12.03
2022-08-30T06:08:13.355Z,7.37
2022-08-30T06:10:43.149Z,10.13
2022-08-30T06:13:14.260Z,14.60
2022-08-30T06:15:45.305Z,6.90
2022-08-30T06:18:15.467Z,5.93
2022-08-30T06:20:50.361Z,8.57
2022-08-30T06:23:20.432Z,5.70
2022-08-30T06:25:50.346Z,6.23
2022-08-30T06:28:20.043Z,9.40
2022-08-30T06:30:49.820Z,7.20
2022-08-30T06:33:19.596Z,6.83
2022-08-30T06:35:58.459Z,13.47
2022-08-30T06:38:20.838Z,14.47
2022-08-30T06:40:50.896Z,6.20
2022-08-30T06:43:20.829Z,7.33
2022-08-30T06:45:50.934Z,6.63
2022-08-30T06:48:20.699Z,6.33
2022-08-30T06:50:55.089Z,7.60
2022-08-30T06:53:25.004Z,6.60
2022-08-30T06:56:03.388Z,5.47
2022-08-30T06:58:33.985Z,7.33
2022-08-30T07:01:04.829Z,7.85
2022-08-30T07:03:36.028Z,5.40
2022-08-30T07:06:09.079Z,5.50
2022-08-30T07:08:39.384Z,5.67
2022-08-30T07:11:09.510Z,5.70
2022-08-30T07:13:39.939Z,4.05
2022-08-30T07:16:13.328Z,4.10
2022-08-30T07:18:54.155Z,3.87
2022-08-30T07:21:27.182Z,7.57
2022-08-30T07:23:59.093Z,5.83
2022-08-30T07:26:32.248Z,3.27
2022-08-30T07:29:02.665Z,4.17
2022-08-30T07:31:34.378Z,5.43
2022-08-30T07:34:07.938Z,5.20
2022-08-30T07:36:40.011Z,8.97
2022-08-30T07:39:09.956Z,4.97
2022-08-30T07:41:39.689Z,3.70
2022-08-30T07:44:12.192Z,6.47
2022-08-30T07:46:43.196Z,6.30
2022-08-30T07:49:13.312Z,3.00
2022-08-30T07:51:44.278Z,5.08
2022-08-30T07:54:14.381Z,2.90
2022-08-30T07:56:44.147Z,3.43
2022-08-30T07:59:13.912Z,2.03
2022-08-30T08:01:43.558Z,4.10
2022-08-30T08:04:13.136Z,7.90
2022-08-30T08:06:43.031Z,1.77
2022-08-30T08:09:12.963Z,4.20
2022-08-30T08:11:42.731Z,3.53
2022-08-30T08:14:12.490Z,6.30
2022-08-30T08:16:43.940Z,2.80
2022-08-30T08:19:13.716Z,2.10
2022-08-30T08:21:43.493Z,3.10
2022-08-30T08:24:13.577Z,1.85
2022-08-30T08:26:45.408Z,5.10
2022-08-30T08:29:14.700Z,3.60
2022-08-30T08:31:46.274Z,3.77
2022-08-30T08:34:17.863Z,8.73
2022-08-30T08:36:48.907Z,2.77
2022-08-30T08:39:18.905Z,3.17
2022-08-30T08:42:00.768Z,2.45
2022-08-30T08:44:50.477Z,2.70
2022-08-30T08:47:39.842Z,3.97
2022-08-30T08:50:19.900Z,2.20
2022-08-30T08:53:25.155Z,1.53
2022-08-30T08:55:50.413Z,1.57
2022-08-30T08:58:28.715Z,2.50
2022-08-30T09:00:59.999Z,4.78
2022-08-30T09:03:30.778Z,3.73
2022-08-30T09:06:02.388Z,6.07
2022-08-30T09:08:33.120Z,2.83
2022-08-30T09:11:06.563Z,2.67
2022-08-30T09:13:36.320Z,1.07
2022-08-30T09:16:08.994Z,3.17
2022-08-30T09:18:46.928Z,5.30
2022-08-30T09:21:20.583Z,4.00
2022-08-30T09:23:53.885Z,5.85
2022-08-30T09:26:38.401Z,9.13
2022-08-30T09:29:11.199Z,1.97
2022-08-30T09:32:24.932Z,4.70
2022-08-30T09:36:57.897Z,6.10
2022-08-30T09:39:30.736Z,1.53
2022-08-30T09:42:26.642Z,1.73
2022-08-30T09:45:02.006Z,2.60
2022-08-30T09:47:33.817Z,2.47
2022-08-30T09:50:12.211Z,2.55
2022-08-30T09:53:09.889Z,3.57
2022-08-30T09:55:48.663Z,3.40
2022-08-30T09:58:39.597Z,4.67
2022-08-30T10:01:27.239Z,5.97
2022-08-30T10:04:07.366Z,3.20
2022-08-30T10:06:57.856Z,3.97
2022-08-30T10:09:33.421Z,2.17
2022-08-30T10:12:15.425Z,1.90
2022-08-30T10:15:06.154Z,2.17
2022-08-30T10:17:56.460Z,1.30
2022-08-30T10:20:38.054Z,1.25
2022-08-30T10:23:18.616Z,3.33
2022-08-30T10:26:00.263Z,5.15
2022-08-30T10:28:44.833Z,3.37
2022-08-30T10:31:30.601Z,7.13
2022-08-30T10:34:05.907Z,1.00
2022-08-30T10:36:38.414Z,1.50
2022-08-30T10:39:11.335Z,1.60
2022-08-30T10:41:46.070Z,1.23
2022-08-30T10:44:21.669Z,1.93
2022-08-30T10:47:10.579Z,2.63
2022-08-30T10:49:43.758Z,3.17
2022-08-30T10:52:22.431Z,3.40
2022-08-30T10:54:58.862Z,3.70
2022-08-30T10:57:28.793Z,1.60
2022-08-30T11:00:05.855Z,2.33
2022-08-30T11:03:05.354Z,3.70
2022-08-30T11:05:50.344Z,3.17
2022-08-30T11:08:39.397Z,2.20
2022-08-30T11:11:15.041Z,1.00
2022-08-30T11:13:47.316Z,3.45
2022-08-30T11:16:19.912Z,2.23
2022-08-30T11:18:58.588Z,1.87
2022-08-30T11:21:37.356Z,4.77
2022-08-30T11:24:20.903Z,6.17
2022-08-30T11:26:54.542Z,1.77
2022-08-30T11:29:44.019Z,1.90
2022-08-30T11:32:18.188Z,4.92
2022-08-30T11:34:50.999Z,1.93
2022-08-30T11:37:38.790Z,3.47
2022-08-30T11:42:49.256Z,2.50
2022-08-30T11:45:28.369Z,2.85
2022-08-30T11:48:08.888Z,3.60
2022-08-30T11:50:43.433Z,2.20
2022-08-30T11:53:18.881Z,1.97
2022-08-30T11:56:04.188Z,4.93
2022-08-30T11:58:51.890Z,3.33
2022-08-30T12:01:50.096Z,2.37
2022-08-30T12:04:07.973Z,2.92
2022-08-30T12:06:44.635Z,1.75
2022-08-30T12:09:23.586Z,4.03
2022-08-30T12:12:13.607Z,4.13
2022-08-30T12:14:51.789Z,2.77
2022-08-30T12:18:04.957Z,1.87
2022-08-30T12:20:40.469Z,2.87
2022-08-30T12:25:47.100Z,1.27
2022-08-30T12:28:25.941Z,1.50
2022-08-30T12:30:55.783Z,6.17
2022-08-30T12:33:31.352Z,9.20
2022-08-30T12:36:01.954Z,2.47
2022-08-30T12:38:32.878Z,2.30
2022-08-30T12:41:05.657Z,1.27
2022-08-30T12:43:38.908Z,5.13
2022-08-30T12:46:15.604Z,2.12
2022-08-30T12:48:45.966Z,3.50
2022-08-30T12:51:38.245Z,3.20
2022-08-30T12:54:27.620Z,1.82
2022-08-30T12:57:19.643Z,3.20
2022-08-30T12:59:53.993Z,2.27
2022-08-30T13:02:24.879Z,3.33
2022-08-30T13:04:56.764Z,1.87
2022-08-30T13:07:29.933Z,4.13
2022-08-30T13:10:04.738Z,4.47
2022-08-30T13:12:36.298Z,3.13
2022-08-30T13:17:29.740Z,4.40
2022-08-30T13:20:08.761Z,2.70
2022-08-30T13:22:41.105Z,3.40
2022-08-30T13:25:11.936Z,6.57
2022-08-30T13:27:41.955Z,3.93
2022-08-30T13:30:16.249Z,2.47
2022-08-30T13:32:46.478Z,3.37
2022-08-30T13:35:16.109Z,1.33
2022-08-30T13:37:49.593Z,2.70
2022-08-30T13:40:18.580Z,2.40
2022-08-30T13:42:49.031Z,1.70
2022-08-30T13:47:52.292Z,6.00
2022-08-30T13:50:22.055Z,2.60
2022-08-30T13:52:52.201Z,2.37
2022-08-30T13:55:22.086Z,3.63
2022-08-30T13:57:56.316Z,8.67
2022-08-30T14:00:24.844Z,5.15
2022-08-30T14:03:00.093Z,2.02
2022-08-30T14:05:51.491Z,4.10
2022-08-30T14:08:44.503Z,2.47
2022-08-30T14:10:46.931Z,2.95
2022-08-30T14:13:12.464Z,2.20
2022-08-30T14:15:43.053Z,2.90
2022-08-30T14:18:17.646Z,3.17
2022-08-30T14:20:44.423Z,2.13
2022-08-30T14:23:15.204Z,3.73
2022-08-30T14:25:44.978Z,11.60
2022-08-30T14:28:14.995Z,3.00
2022-08-30T14:30:45.105Z,4.33
2022-08-30T14:33:15.604Z,1.43
2022-08-30T14:35:45.362Z,2.80
2022-08-30T14:38:16.084Z,2.75
2022-08-30T14:40:45.981Z,1.80
2022-08-30T14:43:15.778Z,2.87
2022-08-30T14:45:46.002Z,1.50
2022-08-30T14:48:15.961Z,5.72
2022-08-30T14:50:45.698Z,2.33
2022-08-30T14:53:15.466Z,2.43
2022-08-30T14:55:45.501Z,4.00
2022-08-30T14:58:16.823Z,1.87
2022-08-30T15:00:53.707Z,6.57
2022-08-30T15:03:23.768Z,3.27
2022-08-30T15:05:53.880Z,3.27
2022-08-30T15:08:23.646Z,1.02
2022-08-30T15:10:55.260Z,2.83
2022-08-30T15:13:25.509Z,2.83
2022-08-30T15:15:55.402Z,3.93
2022-08-30T15:18:24.900Z,3.03
2022-08-30T15:20:55.916Z,1.30
2022-08-30T15:23:25.863Z,2.53
2022-08-30T15:25:55.642Z,2.23
2022-08-30T15:28:25.716Z,4.53
2022-08-30T15:30:55.958Z,0.97
2022-08-30T15:33:25.961Z,3.13
2022-08-30T15:35:55.737Z,4.77
2022-08-30T15:38:25.473Z,2.63
2022-08-30T15:40:55.244Z,5.03
2022-08-30T15:43:25.001Z,2.47
2022-08-30T15:45:56.090Z,3.33
2022-08-30T15:48:25.558Z,1.67
2022-08-30T15:50:58.853Z,2.67
2022-08-30T15:53:28.690Z,3.30
2022-08-30T15:55:58.205Z,2.50
2022-08-30T15:58:28.530Z,2.80
2022-08-30T16:00:58.434Z,3.13
2022-08-30T16:03:29.030Z,1.70
2022-08-30T16:05:58.951Z,3.63
2022-08-30T16:08:29.259Z,3.43
2022-08-30T16:10:59.020Z,4.60
2022-08-30T16:13:28.956Z,3.43
2022-08-30T16:16:02.071Z,3.50
2022-08-30T16:18:32.854Z,2.60
2022-08-30T16:21:12.272Z,2.43
2022-08-30T16:23:44.075Z,2.73
2022-08-30T16:26:17.410Z,3.37
2022-08-30T16:28:48.250Z,2.17
2022-08-30T16:31:20.486Z,5.60
2022-08-30T16:33:52.669Z,4.00
2022-08-30T16:36:23.560Z,2.12
2022-08-30T16:38:58.330Z,1.73
2022-08-30T16:41:28.054Z,1.30
2022-08-30T16:43:57.888Z,4.40
2022-08-30T16:46:28.744Z,2.92
2022-08-30T16:49:01.332Z,3.85
2022-08-30T16:51:33.025Z,3.20
2022-08-30T16:54:07.760Z,1.73
2022-08-30T16:56:39.011Z,4.07
2022-08-30T16:59:11.310Z,4.17
2022-08-30T17:01:42.897Z,2.50
2022-08-30T17:06:47.071Z,1.50
2022-08-30T17:09:17.579Z,1.77
2022-08-30T17:11:48.363Z,3.60
2022-08-30T17:14:27.482Z,1.57
2022-08-30T17:16:49.839Z,4.43
2022-08-30T17:19:26.748Z,2.47
2022-08-30T17:21:52.146Z,4.10
2022-08-30T17:24:21.921Z,5.95
2022-08-30T17:26:51.679Z,5.10
2022-08-30T17:29:21.851Z,1.80
2022-08-30T17:31:51.792Z,3.03
2022-08-30T17:34:25.065Z,1.77
2022-08-30T17:36:58.143Z,2.10
2022-08-30T17:39:29.913Z,1.30
2022-08-30T17:42:00.895Z,3.17
2022-08-30T17:44:33.205Z,4.40
2022-08-30T17:47:03.126Z,2.30
2022-08-30T17:49:36.348Z,2.83
2022-08-30T17:52:08.093Z,2.37
2022-08-30T17:54:40.120Z,4.62
2022-08-30T17:57:11.409Z,2.57
2022-08-30T17:59:41.652Z,4.10
2022-08-30T18:02:12.139Z,3.95
2022-08-30T18:04:43.260Z,3.47
2022-08-30T18:07:15.864Z,1.80
2022-08-30T18:09:45.640Z,2.67
2022-08-30T18:12:15.533Z,1.70
2022-08-30T18:14:47.020Z,4.40
2022-08-30T18:17:18.551Z,2.90
2022-08-30T18:19:48.021Z,5.47
2022-08-30T18:22:17.932Z,3.05
2022-08-30T18:24:49.284Z,1.87
2022-08-30T18:27:19.105Z,2.50
2022-08-30T18:29:48.953Z,2.97
2022-08-30T18:32:19.006Z,2.47
2022-08-30T18:34:50.476Z,1.73
2022-08-30T18:37:19.974Z,0.90
2022-08-30T18:39:51.735Z,7.37
2022-08-30T18:42:21.201Z,2.55
2022-08-30T18:44:50.971Z,1.83
2022-08-30T18:47:23.217Z,2.50
2022-08-30T18:49:54.812Z,1.90
2022-08-30T18:52:26.098Z,2.10
2022-08-30T18:54:55.880Z,1.73
2022-08-30T18:57:27.610Z,2.57
2022-08-30T18:59:57.952Z,3.50
2022-08-30T19:02:27.988Z,2.77
2022-08-30T19:04:59.098Z,1.80
2022-08-30T19:07:34.097Z,1.80
2022-08-30T19:10:00.768Z,3.97
2022-08-30T19:12:31.293Z,2.12
2022-08-30T19:15:01.204Z,3.77
2022-08-30T19:17:32.673Z,2.70
2022-08-30T19:20:02.612Z,1.73
2022-08-30T19:23:05.923Z,2.20
2022-08-30T19:25:05.004Z,1.40
2022-08-30T19:27:37.305Z,2.47
2022-08-30T19:30:11.298Z,3.30
2022-08-30T19:32:41.138Z,18.37
2022-08-30T19:35:11.688Z,2.78
2022-08-30T19:37:42.029Z,1.73
2022-08-30T19:40:16.980Z,2.78
2022-08-30T19:42:47.921Z,3.07
2022-08-30T19:45:21.487Z,3.70
2022-08-30T19:47:53.100Z,5.00
2022-08-30T19:50:23.309Z,4.20
2022-08-30T19:52:54.912Z,1.83
2022-08-30T19:55:31.376Z,2.33
2022-08-30T19:57:59.855Z,3.43
2022-08-30T20:00:30.629Z,5.12
2022-08-30T20:03:01.764Z,2.30
2022-08-30T20:05:32.870Z,3.50
2022-08-30T20:08:02.791Z,3.73
2022-08-30T20:10:32.620Z,3.37
2022-08-30T20:13:03.234Z,1.07
2022-08-30T20:15:34.835Z,2.20
2022-08-30T20:18:13.491Z,4.13
2022-08-30T20:20:38.136Z,3.27
2022-08-30T20:23:07.925Z,4.00
2022-08-30T20:24:23.953Z,2.57
2022-08-30T20:25:38.773Z,2.10
2022-08-30T20:28:09.524Z,2.03
2022-08-30T20:30:39.283Z,2.70
2022-08-30T20:33:09.253Z,1.63
2022-08-30T20:35:39.097Z,1.40
2022-08-30T20:38:13.919Z,1.35
2022-08-30T20:40:44.335Z,3.83
2022-08-30T20:43:14.159Z,4.70
2022-08-30T20:45:44.374Z,6.57
2022-08-30T20:48:15.023Z,1.07
2022-08-30T20:50:45.175Z,1.60
2022-08-30T20:53:15.012Z,1.63
2022-08-30T20:55:47.004Z,2.73
2022-08-30T20:58:17.204Z,1.43
2022-08-30T21:00:51.706Z,4.90
2022-08-30T21:03:27.701Z,2.23
2022-08-30T21:05:53.573Z,2.87
2022-08-30T21:08:23.118Z,2.33
2022-08-30T21:10:54.396Z,3.77
2022-08-30T21:13:24.328Z,5.07
2022-08-30T21:15:55.335Z,3.73
2022-08-30T21:18:28.425Z,0.90
2022-08-30T21:20:59.502Z,2.47
2022-08-30T21:23:29.349Z,1.70
2022-08-30T21:26:02.312Z,1.37
2022-08-30T21:28:32.167Z,2.17
2022-08-30T21:31:14.011Z,3.20
2022-08-30T21:33:44.098Z,1.20
2022-08-30T21:36:31.277Z,4.10
2022-08-30T21:39:01.179Z,2.63
2022-08-30T21:41:32.284Z,2.37
2022-08-30T21:44:05.301Z,4.63
2022-08-30T21:46:36.600Z,3.37
2022-08-30T21:49:08.793Z,2.12
2022-08-30T21:51:41.642Z,4.30
2022-08-30T21:54:12.996Z,3.60
2022-08-30T21:56:45.797Z,6.90
2022-08-30T21:59:16.431Z,4.10
2022-08-30T22:01:47.091Z,2.07
2022-08-30T22:04:17.322Z,1.07
2022-08-30T22:06:50.211Z,2.47
2022-08-30T22:09:23.373Z,1.20
2022-08-30T22:11:53.745Z,1.83
2022-08-30T22:14:24.024Z,6.53
2022-08-30T22:16:55.591Z,1.90
2022-08-30T22:19:25.484Z,3.05
2022-08-30T22:22:01.191Z,2.50
2022-08-30T22:24:28.207Z,1.63
2022-08-30T22:26:59.685Z,1.50
2022-08-30T22:29:29.977Z,3.07
2022-08-30T22:32:00.370Z,2.30
2022-08-30T22:34:31.818Z,1.90
2022-08-30T22:37:01.747Z,3.20
2022-08-30T22:39:31.294Z,3.55
2022-08-30T22:42:01.736Z,5.80
2022-08-30T22:44:31.259Z,1.90
2022-08-30T22:47:02.172Z,1.73
2022-08-30T22:49:32.212Z,3.33
2022-08-30T22:52:01.972Z,4.97
2022-08-30T22:54:33.111Z,3.80
2022-08-30T22:57:02.956Z,2.70
2022-08-30T22:59:34.178Z,3.15
2022-08-30T23:02:05.143Z,1.80
2022-08-30T23:04:39.398Z,5.17
2022-08-30T23:07:09.246Z,1.63
2022-08-30T23:09:39.006Z,3.27
2022-08-30T23:12:10.906Z,5.20
2022-08-30T23:14:40.686Z,4.83
2022-08-30T23:17:10.448Z,2.00
2022-08-30T23:19:40.596Z,2.30
2022-08-30T23:22:11.568Z,1.55
2022-08-30T23:25:00.013Z,3.57
2022-08-30T23:30:26.513Z,3.85
2022-08-30T23:33:14.617Z,2.93
2022-08-30T23:36:02.016Z,5.15
2022-08-30T23:38:49.405Z,1.90
2022-08-30T23:41:36.630Z,2.00
2022-08-30T23:44:25.781Z,2.45
2022-08-30T23:47:13.026Z,1.70
2022-08-30T23:50:00.623Z,7.33
2022-08-30T23:52:49.178Z,4.62
2022-08-30T23:55:36.385Z,3.15
